Flight Track Log - Related Links

Times and Time Zones

All times are in EDT time to prevent confusion due to time zone crossing. See the N329JB flight status page for this flight to view local times or setup timezone preferences in your user account.

Time Position Orientation Groundspeed Altitude Reporting Facility
EDT Latitude Longitude Course Direction KTS MPH feet Rate Location/Type
Tue 03:48:20 PM 41.0833 -73.7333 201° Southwest 150 173 1,900  Level New York TRACON
Tue 03:49:20 PM 41.1000 -73.8167 285° West 206 237 3,900 1,050 Climbing New York TRACON
Tue 03:50:00 PM 40.7479 -73.8597 205° Southwest  Level FlightAware Approximate
Tue 03:50:20 PM 41.0833 -73.9000 255° West 262 302 4,000  Level New York TRACON
Tue 03:51:00 PM 40.6420 -73.9184 199° South  Level FlightAware Approximate
Tue 03:51:21 PM 41.0333 -73.9500 217° Southwest 259 298 5,100  Level New York TRACON
Tue 03:52:00 PM 40.5330 -73.9668 201° Southwest  Level FlightAware Approximate
Tue 03:52:20 PM 40.9500 -73.9833 197° South 298 343 8,500  Level New York TRACON
Tue 03:53:00 PM 40.4268 -74.0200 201° Southwest  Level FlightAware Approximate
Tue 03:53:20 PM 40.8833 -73.9167 143° Southeast 332 382 11,200  Level New York TRACON
Tue 03:54:20 PM 40.7833 -73.9500 194° South 353 406 12,000 400 Climbing New York TRACON
Tue 03:55:20 PM 40.7167 -74.0167 217° Southwest 342 394 12,000  Level New York TRACON
Tue 03:56:20 PM 40.6333 -74.0833 211° Southwest 336 387 12,000 1,559 Level New York TRACON
Tue 03:58:17 PM 40.4672 -74.1619 200° South 351 404 16,600 1,685 Climbing New York Center
Tue 03:59:18 PM 40.3706 -74.1817 189° South 377 434 17,000 1,059 Climbing New York Center
Tue 04:00:16 PM 40.2636 -74.2036 189° South 396 456 18,700 1,613 Climbing New York Center
Tue 04:01:17 PM 40.1422 -74.2275 189° South 396 456 20,200 1,778 Climbing New York Center
Tue 04:02:31 PM 40.0122 -74.2561 190° South 412 474 22,700 1,701 Climbing Washington Center
Tue 04:03:31 PM 39.9153 -74.3364 212° Southwest 412 474 24,000 1,100 Climbing Washington Center
Tue 04:04:31 PM 39.8203 -74.4325 218° Southwest 418 481 24,900 1,400 Climbing Washington Center
Tue 04:05:31 PM 39.7358 -74.5392 224° Southwest 429 494 26,800 1,900 Climbing Washington Center
Tue 04:06:31 PM 39.6453 -74.6564 225° Southwest 429 494 28,700 1,600 Climbing Washington Center
Tue 04:07:31 PM 39.5628 -74.7653 226° Southwest 429 494 30,000 1,500 Climbing Washington Center
Tue 04:08:31 PM 39.4822 -74.8736 226° Southwest 429 494 31,700 1,750 Climbing Washington Center
Tue 04:09:31 PM 39.4036 -74.9764 225° Southwest 424 488 33,500 1,300 Climbing Washington Center
Tue 04:10:31 PM 39.3247 -75.0792 225° Southwest 414 476 34,300 950 Climbing Washington Center
Tue 04:11:31 PM 39.2208 -75.1469 207° Southwest 414 476 35,400 850 Climbing Washington Center
Tue 04:12:31 PM 39.1044 -75.1983 199° South 414 476 36,000 300 Climbing Washington Center
Tue 04:13:31 PM 38.9836 -75.2444 197° South 445 512 36,000  Level Washington Center
Tue 04:14:31 PM 38.8650 -75.3011 200° South 457 526 36,000  Level Washington Center
Tue 04:15:31 PM 38.7419 -75.3522 198° South 462 532 36,000  Level Washington Center
Tue 04:16:31 PM 38.6211 -75.3950 195° South 457 526 36,000  Level Washington Center
Tue 04:17:31 PM 38.5003 -75.4483 199° South 457 526 36,000  Level Washington Center
Tue 04:18:31 PM 38.3794 -75.4989 198° South 462 532 36,000  Level Washington Center
Tue 04:19:31 PM 38.2753 -75.5519 202° Southwest 457 526 36,000  Level Washington Center
Tue 04:20:31 PM 38.1628 -75.6208 206° Southwest 452 520 36,000  Level Washington Center
Tue 04:21:31 PM 38.0522 -75.6919 207° Southwest 446 513 36,000  Level Washington Center
Tue 04:22:31 PM 37.9331 -75.7733 208° Southwest 446 513 36,000  Level Washington Center
Tue 04:23:31 PM 37.8289 -75.8311 204° Southwest 446 513 36,000  Level Washington Center
Tue 04:24:31 PM 37.7097 -75.9119 208° Southwest 446 513 36,000  Level Washington Center
Tue 04:25:31 PM 37.5989 -75.9797 206° Southwest 446 513 36,000  Level Washington Center
Tue 04:26:31 PM 37.4883 -76.0472 206° Southwest 446 513 36,000  Level Washington Center
Tue 04:27:31 PM 37.3775 -76.1144 206° Southwest 446 513 36,000  Level Washington Center
Tue 04:28:31 PM 37.2728 -76.1714 203° Southwest 446 513 36,000  Level Washington Center
Tue 04:29:31 PM 37.1619 -76.2408 207° Southwest 446 513 36,000  Level Washington Center
Tue 04:30:31 PM 37.0489 -76.3100 206° Southwest 446 513 36,000  Level Washington Center
Tue 04:31:31 PM 36.9358 -76.3767 205° Southwest 446 513 36,000  Level Washington Center
Tue 04:32:31 PM 36.8228 -76.4431 205° Southwest 446 513 36,000  Level Washington Center
Tue 04:33:31 PM 36.7097 -76.5092 205° Southwest 446 513 36,000  Level Washington Center
Tue 04:34:31 PM 36.5922 -76.5647 201° Southwest 451 519 36,000  Level Washington Center
Tue 04:35:31 PM 36.4750 -76.6147 199° South 451 519 36,000  Level Washington Center
Tue 04:36:31 PM 36.3556 -76.6675 200° South 451 519 36,000  Level Washington Center
Tue 04:37:31 PM 36.2342 -76.7197 199° South 451 519 36,000  Level Washington Center
Tue 04:38:31 PM 36.1147 -76.7747 200° South 451 519 36,000  Level Washington Center
Tue 04:39:31 PM 35.9972 -76.8294 201° Southwest 456 525 36,000  Level Washington Center
Tue 04:40:31 PM 35.8758 -76.8814 199° South 456 525 36,000  Level Washington Center
Tue 04:41:31 PM 35.7583 -76.9333 200° South 456 525 36,000  Level Washington Center
Tue 04:42:31 PM 35.6306 -76.9900 200° South 445 512 36,000  Level Washington Center
Tue 04:43:31 PM 35.5089 -77.0439 200° South 451 519 36,000  Level Washington Center
Tue 04:44:31 PM 35.3914 -77.0953 200° South 451 519 36,000  Level Washington Center
Tue 04:45:31 PM 35.2739 -77.1492 201° Southwest 451 519 36,000  Level Washington Center
Tue 04:46:31 PM 35.1542 -77.2000 199° South 451 519 36,000  Level Washington Center
Tue 04:47:31 PM 35.0344 -77.2536 200° South 451 519 36,000  Level Washington Center
Tue 04:48:31 PM 34.9192 -77.3019 199° South 446 513 36,000  Level Washington Center
Tue 04:49:31 PM 34.8036 -77.3550 201° Southwest 451 519 36,000  Level Washington Center
Tue 04:50:31 PM 34.6861 -77.4031 199° South 451 519 36,000  Level Washington Center
Tue 04:51:31 PM 34.5706 -77.4536 200° South 451 519 36,000  Level Washington Center
Tue 04:52:31 PM 34.4467 -77.4933 195° South 451 519 36,000  Level Washington Center
Tue 04:53:31 PM 34.3272 -77.5333 195° South 451 519 36,000  Level Washington Center
Tue 04:54:31 PM 34.2056 -77.5708 194° South 451 519 36,000  Level Washington Center
Tue 04:55:31 PM 34.0817 -77.6103 195° South 451 519 36,000  Level Washington Center
Tue 04:55:51 PM 34.0494 -77.6194 193° South 453 521 36,000  Level Jacksonville Center
Tue 04:56:51 PM 33.9281 -77.6594 195° South 471 542 36,000  Level Jacksonville Center
Tue 04:57:51 PM 33.8067 -77.6992 195° South 466 536 36,000  Level Jacksonville Center
Tue 04:58:51 PM 33.6872 -77.7361 194° South 460 529 36,000  Level Jacksonville Center
Tue 04:59:51 PM 33.5658 -77.7756 195° South 455 524 36,000  Level Jacksonville Center
Tue 05:00:51 PM 33.4464 -77.8147 195° South 450 518 36,000  Level Jacksonville Center
Tue 05:01:51 PM 33.3247 -77.8517 194° South 450 518 36,000  Level Jacksonville Center
Tue 05:02:52 PM 33.2031 -77.8908 195° South 450 518 36,000  Level Jacksonville Center
Tue 05:03:51 PM 33.0814 -77.9247 193° South 450 518 36,000  Level Jacksonville Center
Tue 05:04:51 PM 32.9597 -77.9661 196° South 450 518 36,000  Level Jacksonville Center
Tue 05:05:51 PM 32.8381 -78.0025 194° South 450 518 36,000  Level Jacksonville Center
Tue 05:06:51 PM 32.7164 -78.0411 195° South 450 518 36,000  Level Jacksonville Center
Tue 05:07:51 PM 32.5969 -78.0797 195° South 450 518 36,000  Level Jacksonville Center
Tue 05:08:51 PM 32.4750 -78.1156 194° South 450 518 36,000  Level Jacksonville Center
Tue 05:09:51 PM 32.3556 -78.1539 195° South 450 518 36,000  Level Jacksonville Center
Tue 05:10:51 PM 32.2336 -78.1897 194° South 450 518 36,000  Level Jacksonville Center
Tue 05:11:51 PM 32.1142 -78.2300 196° South 450 518 36,000  Level Jacksonville Center
Tue 05:12:51 PM 31.9822 -78.2736 196° South 450 518 36,000  Level Jacksonville Center
Tue 05:13:51 PM 31.8625 -78.3114 195° South 450 518 36,000  Level Jacksonville Center
Tue 05:14:51 PM 31.7428 -78.3489 195° South 450 518 36,000  Level Jacksonville Center
Tue 05:15:51 PM 31.6250 -78.3817 193° South 450 518 36,000  Level Jacksonville Center
Tue 05:16:51 PM 31.5033 -78.4239 196° South 450 518 36,000  Level Jacksonville Center
Tue 05:17:52 PM 31.4000 -78.4558 195° South 443 510 36,000  Level Jacksonville Center
Tue 05:18:51 PM 31.2803 -78.4956 196° South 443 510 36,000  Level Jacksonville Center
Tue 05:19:51 PM 31.1644 -78.5300 194° South 443 510 36,000  Level Jacksonville Center
Tue 05:20:51 PM 31.0428 -78.5672 195° South 443 510 36,000  Level Jacksonville Center
Tue 05:21:51 PM 30.9106 -78.6094 195° South 457 526 36,000  Level Jacksonville Center
Tue 05:22:51 PM 30.7928 -78.6486 196° South 445 512 36,000  Level Jacksonville Center
Tue 05:24:32 PM 30.6081 -78.7061 195° South 434 499 36,000  Level Miami Center
Tue 05:25:32 PM 30.4931 -78.7472 197° South 436 502 36,000  Level Miami Center
Tue 05:26:32 PM 30.3736 -78.7886 197° South 443 510 36,000  Level Miami Center
Tue 05:27:32 PM 30.2606 -78.8297 197° South 449 517 36,000  Level Miami Center
Tue 05:28:32 PM 30.1411 -78.8731 197° South 449 517 36,000  Level Miami Center
Tue 05:29:32 PM 30.0153 -78.9258 200° South 440 506 36,000  Level Miami Center
Tue 05:30:32 PM 29.9000 -78.9714 199° South 445 512 36,000  Level Miami Center
Tue 05:31:32 PM 29.7806 -79.0050 194° South 450 518 36,000 -700 Level Miami Center
Tue 05:32:32 PM 29.6572 -79.0264 189° South 445 512 34,600 -1,950 Descending Miami Center
Tue 05:33:32 PM 29.5317 -79.0478 188° South 452 520 32,100 -1,300 Descending Miami Center
Tue 05:34:32 PM 29.4083 -79.0714 189° South 457 526 32,000 -50 Descending Miami Center
Tue 05:35:32 PM 29.2828 -79.0975 190° South 462 532 32,000  Level Miami Center
Tue 05:36:32 PM 29.1553 -79.1164 187° South 462 532 32,000  Level Miami Center
Tue 05:37:32 PM 29.0297 -79.1375 188° South 467 537 32,000  Level Miami Center
Tue 05:38:32 PM 28.9042 -79.1608 189° South 467 537 32,000  Level Miami Center
Tue 05:39:32 PM 28.7806 -79.1844 190° South 467 537 32,000  Level Miami Center
Tue 05:40:32 PM 28.6550 -79.2056 188° South 462 532 32,000  Level Miami Center
Tue 05:41:32 PM 28.5358 -79.2267 189° South 457 526 32,000 -250 Level Miami Center
Tue 05:42:32 PM 28.4122 -79.2500 189° South 452 520 31,500 -1,450 Descending Miami Center
Tue 05:43:32 PM 28.2886 -79.2733 189° South 452 520 29,100 -2,400 Descending Miami Center
Tue 05:44:32 PM 28.1631 -79.2942 188° South 452 520 26,700 -2,350 Descending Miami Center
Tue 05:45:32 PM 28.0500 -79.3153 189° South 447 514 24,400 -2,100 Descending Miami Center
Tue 05:46:32 PM 27.9328 -79.3386 190° South 435 501 22,500 -1,500 Descending Miami Center
Tue 05:47:32 PM 27.8381 -79.3811 202° Southwest 379 436 21,400 -1,050 Descending Miami Center
Tue 05:48:32 PM 27.7556 -79.4428 213° Southwest 393 452 20,400 -1,100 Descending Miami Center
Tue 05:49:32 PM 27.6519 -79.5153 212° Southwest 406 467 19,200 -1,500 Descending Miami Center
Tue 05:50:32 PM 27.5608 -79.5789 212° Southwest 392 451 17,400 -1,950 Descending Miami Center
Tue 05:51:32 PM 27.4742 -79.6400 212° Southwest 386 444 15,300 -2,000 Descending Miami Center
Tue 05:52:32 PM 27.3958 -79.6967 213° Southwest 380 437 13,400 -1,800 Descending Miami Center
Tue 05:53:32 PM 27.3175 -79.7508 212° Southwest 359 413 11,700 -1,750 Descending Miami Center
Tue 05:54:32 PM 27.2369 -79.8072 212° Southwest 332 382 9,900 -1,800 Descending Miami Center
Tue 05:55:32 PM 27.1692 -79.8567 213° Southwest 306 352 8,100 -950 Descending Miami Center
Tue 05:56:32 PM 27.0992 -79.9017 210° Southwest 301 346 8,000 -800 Descending Miami Center
Tue 05:57:32 PM 27.0339 -79.9372 206° Southwest 296 341 6,500 -1,400 Descending Miami Center
Tue 05:58:32 PM 26.9703 -79.9728 206° Southwest 278 320 5,200 -1,250 Descending Miami Center
Tue 05:59:32 PM 26.9086 -80.0225 216° Southwest 258 297 4,000 -600 Descending Miami Center
Tue 06:00:32 PM 26.8556 -80.0675 217° Southwest 246 283 4,000  Level Miami Center
Tue 06:01:32 PM 26.8064 -80.1150 221° Southwest 241 277 4,000  Level Miami Center
Tue 06:02:32 PM 26.8031 -80.1778 267° West 216 249 4,000  Level Miami Center
Tue 06:04:00 PM 26.6832 -80.0956 270° West  Level Estimated
Tue 06:11:00 PM 26.6832 -80.0956 110° East  Level Estimated
Tue 06:12:00 PM 26.6832 -80.0956 110° East  Level Estimated
Tue 06:13:00 PM 26.6832 -80.0956 110° East  Level Estimated
Tue 06:14:00 PM 26.6832 -80.0956 110° East  Level Estimated
Tue 06:15:00 PM 26.6832 -80.0956 110° East  Level Estimated
Tue 06:16:00 PM 26.6832 -80.0956 110° East  Level Estimated
Tue 06:17:00 PM 26.6832 -80.0956 110° East  Level Estimated
Tue 06:18:00 PM 26.6832 -80.0956 110° East  Level Estimated
Tue 06:19:00 PM 26.6832 -80.0956 110° East  Level Estimated
Tue 06:20:00 PM 26.6832 -80.0956 110° East  Level Estimated
Tue 06:21:00 PM 26.6832 -80.0956 110° East  Level Estimated

Login

Don't have an account? Register now (free) for customized features, flight alerts, and more!